Builth Wells, United Kingdom
Current Conditions -  °F | °C
As of 9:50 AM on Sunday 21 Dec 2014 (Local Time) from EGOP Reporting Station
Broken Clouds Broken Clouds  
Wind Chill: 50°   Ceiling: 2200
Heat Index: 50°   Visibility: 6mi
Dew Point: 48°   Wind: 28mph
Humidity: 94%   Direction: 240°WSW
Pressure: 30.33"   Gusts: NA
Location:  52.15°N, 3.4°W
Report Text: EGOP 210950Z AUTO 24024KT 9999 // FEW007/// SCT012/// BKN022/// 10/09 Q1027
Loading
Personal Weather Stations






























Interactive Weather Map New forecast layout! Learn more

10-Day Weather Forecast

Advertisements
Track Severe Weather on mobile